KDPG

Michael AAF (Dugway Proving Ground) Airport

Dugway Proving Ground, Utah, USA
METAR KDPG 132255Z 21003KT 15SM FEW140 FEW180 SCT200 35/01 A2997 RMK SLP087 T03520011 LAST
Observed Flight Rules
Aug-13 @ 22:55 UTC (15 hours ago) Visual Flight Rules
Wind Visibility Clouds
210° at 3 knots 15 miles
  • Few at 14,000' AGL
  • Few at 18,000' AGL
  • Scattered at 20,000' AGL
Temperatures Readings
Current 35°C / 95°F
Dewpoint 1°C / 34°F
Humidity 11%
Altimeter 29.97" Hg
Pressure 1008.7 hPa
Elevation 1326
METAR KDPG 132255Z 21003KT 15SM FEW140 FEW180 SCT200 35/01 A2997 RMK SLP087 T03520011 LAST
Observed Flight Rules
Aug-13 @ 22:55 UTC
(15 hours ago)
VFR
Wind Visibility
210° at 3 knots 15 miles
Clouds
  • Few at 14,000' AGL
  • Few at 18,000' AGL
  • Scattered at 20,000' AGL
Temperature Dewpoint
35°C / 95°F 1°C / 34°F
Humidity Altimeter Pressure
11% 29.97" Hg 1008.7 hPa